»·PEaware :: DAL1485 KSLC-KSFO

DAL1485 :: KSLC-KSFO

FLIGHT INFORMATION

Flight Status: Arrived
Operator:
Delta Air Lines
More flights by this operator :: More flights under this callsign
Pilot: Anonymous 15135 (15135)
Aircraft: BOEING 737-800
(B738)
More flights by this aircraft type
Origin: KSLC Salt Lake City Intl
United States
Destination: KSFO San Francisco Intl
United States
More flights between these airports :: More routes between these airports
Route: WEVIC6 OAL INYOE DYAMD3
File this flight plan on PilotEdge
Remarks: PBN / A1B1C1D1S1S2 DOF / 180112 REG / N806SB EET / KZOA0057 OPR / DAL PER / C RMK / TCAS SIMBRIEF
Altitude:
(Current/Filed)
34,000ft
Speed:
(Current/Filed)
461kts
Departed: 11-Jan-18 08:56 PM
Arrived: 11-Jan-18 10:40 PM
Distance/Time
Traveled:
520nm/1:44
Distance/Time
To Go:
Arrived

Flight Plot

Page will automatically refresh every two minutes.

Flight plan parsing failed; only flown route is shown


Map Options




Map Legend


Flown Route
Filed Route
Departure Airport
Arrival Airport
Navaid (VOR, NDB)
Fix

Horizontal Profiles

Position Reports

Time Latitude Longitude Heading Altitude Ground
Speed
11-Jan-18 20:15 40.789105 -111.985599 134 4235ft 0kts
11-Jan-18 20:19 40.789105 -111.985599 133 4235ft 0kts
11-Jan-18 20:20 40.789105 -111.985599 134 4235ft 0kts
11-Jan-18 20:21 40.789105 -111.985599 134 4235ft 0kts
11-Jan-18 20:22 40.789105 -111.985599 134 4235ft 0kts
11-Jan-18 20:23 40.789105 -111.985599 134 4235ft 0kts
11-Jan-18 20:24 40.789105 -111.985599 134 4235ft 0kts
11-Jan-18 20:25 40.789105 -111.985599 134 4235ft 0kts
11-Jan-18 20:26 40.789105 -111.985599 134 4235ft 0kts
11-Jan-18 20:27 40.789105 -111.985599 134 4235ft 0kts
11-Jan-18 20:28 40.789105 -111.985599 134 4235ft 0kts
11-Jan-18 20:29 40.789105 -111.985599 134 4235ft 0kts
11-Jan-18 20:30 40.789105 -111.985599 134 4235ft 0kts
11-Jan-18 20:31 40.789105 -111.985599 134 4235ft 0kts
11-Jan-18 20:32 40.789105 -111.985599 134 4235ft 0kts
11-Jan-18 20:33 40.789105 -111.985599 134 4235ft 0kts
11-Jan-18 20:34 40.789105 -111.985599 134 4235ft 0kts
11-Jan-18 20:35 40.789105 -111.985599 134 4235ft 0kts
11-Jan-18 20:36 40.789105 -111.985599 134 4235ft 0kts
11-Jan-18 20:37 40.789105 -111.985599 134 4235ft 0kts
11-Jan-18 20:38 40.789105 -111.985599 134 4235ft 0kts
11-Jan-18 20:39 40.789105 -111.985599 134 4235ft 0kts
11-Jan-18 20:40 40.789105 -111.985599 134 4235ft 0kts
11-Jan-18 20:41 40.789105 -111.985599 134 4235ft 0kts
11-Jan-18 20:42 40.789105 -111.985599 134 4235ft 0kts
11-Jan-18 20:43 40.789105 -111.985599 134 4235ft 0kts
11-Jan-18 20:44 40.789105 -111.985599 134 4234ft 0kts
11-Jan-18 20:45 40.789105 -111.985599 134 4234ft 0kts
11-Jan-18 20:46 40.789196 -111.985723 134 4235ft 2kts
11-Jan-18 20:47 40.789728 -111.985907 205 4235ft 2kts
11-Jan-18 20:48 40.790024 -111.985259 260 4235ft 2kts
11-Jan-18 20:49 40.790043 -111.985037 266 4234ft 0kts
11-Jan-18 20:50 40.790043 -111.985037 266 4234ft 0kts
11-Jan-18 20:51 40.790112 -111.985887 303 4234ft 5kts
11-Jan-18 20:52 40.790888 -111.986160 355 4234ft 0kts
11-Jan-18 20:53 40.791319 -111.988660 263 4234ft 15kts
11-Jan-18 20:54 40.791153 -111.994168 331 4234ft 6kts
11-Jan-18 20:55 40.793260 -111.994471 355 4234ft 9kts
11-Jan-18 20:56 40.796674 -111.994870 354 4234ft 15kts
11-Jan-18 20:57 40.801542 -111.995430 354 4234ft 19kts
11-Jan-18 20:58 40.807033 -111.996067 355 4234ft 18kts
11-Jan-18 20:59 40.807936 -111.997670 216 4234ft 0kts
11-Jan-18 21:00 40.807828 -111.997786 224 4234ft 3kts
11-Jan-18 21:01 40.807046 -111.999186 176 4234ft 9kts
11-Jan-18 21:02 40.783456 -111.996498 176 4622ft 154kts
11-Jan-18 21:03 40.722789 -111.991395 174 6515ft 225kts
11-Jan-18 21:04 40.658677 -111.981714 173 8800ft 240kts
11-Jan-18 21:05 40.602958 -111.973322 173 10649ft 249kts
11-Jan-18 21:06 40.529681 -111.962298 172 12236ft 294kts
11-Jan-18 21:07 40.448430 -111.950678 182 13999ft 291kts
11-Jan-18 21:08 40.360802 -111.945087 185 14049ft 344kts
11-Jan-18 21:09 40.262370 -111.939176 190 15448ft 359kts
11-Jan-18 21:10 40.163396 -111.955508 196 17593ft 370kts
11-Jan-18 21:11 40.059653 -111.970823 196 19585ft 383kts
11-Jan-18 21:12 39.952188 -111.986554 197 21775ft 395kts
11-Jan-18 21:13 39.842477 -112.002567 197 23937ft 407kts
11-Jan-18 21:14 39.728612 -112.019139 198 25889ft 419kts
11-Jan-18 21:15 39.612980 -112.035833 199 28060ft 419kts
11-Jan-18 21:16 39.499150 -112.055805 219 30013ft 387kts
11-Jan-18 21:17 39.449924 -112.150693 258 32184ft 301kts
11-Jan-18 21:18 39.422292 -112.252657 263 33617ft 296kts
11-Jan-18 21:19 39.397815 -112.355458 263 34214ft 309kts
11-Jan-18 21:20 39.371713 -112.466186 262 34213ft 337kts
11-Jan-18 21:21 39.343362 -112.585891 262 34202ft 359kts
11-Jan-18 21:22 39.314120 -112.708242 261 34217ft 359kts
11-Jan-18 21:23 39.284616 -112.831381 261 34216ft 358kts
11-Jan-18 21:24 39.255233 -112.953731 261 34214ft 358kts
11-Jan-18 21:25 39.225509 -113.076935 261 34212ft 358kts
11-Jan-18 21:26 39.195821 -113.199398 261 34209ft 357kts
11-Jan-18 21:27 39.166231 -113.320998 259 34205ft 358kts
11-Jan-18 21:28 39.135765 -113.445369 258 34202ft 363kts
11-Jan-18 21:29 39.105340 -113.568965 258 34201ft 363kts
11-Jan-18 21:30 39.074761 -113.692386 257 34219ft 364kts
11-Jan-18 21:31 39.043888 -113.816264 257 34221ft 364kts
11-Jan-18 21:32 39.012881 -113.940405 257 34267ft 364kts
11-Jan-18 21:33 38.981780 -114.064340 257 34265ft 365kts
11-Jan-18 21:34 38.950601 -114.187981 257 34263ft 365kts
11-Jan-18 21:35 38.919205 -114.311871 257 34261ft 365kts
11-Jan-18 21:36 38.894925 -114.407260 257 34255ft 365kts
11-Jan-18 21:37 38.863305 -114.530943 257 34252ft 366kts
11-Jan-18 21:38 38.831558 -114.654508 257 34252ft 366kts
11-Jan-18 21:39 38.799399 -114.778519 257 34267ft 367kts
11-Jan-18 21:40 38.767159 -114.902690 257 34265ft 367kts
11-Jan-18 21:41 38.734802 -115.026772 256 34263ft 367kts
11-Jan-18 21:42 38.702481 -115.150090 256 34261ft 368kts
11-Jan-18 21:43 38.669666 -115.274675 256 34258ft 368kts
11-Jan-18 21:44 38.636952 -115.398265 256 34256ft 369kts
11-Jan-18 21:45 38.603925 -115.522416 256 34254ft 369kts
11-Jan-18 21:46 38.570747 -115.646511 256 34252ft 370kts
11-Jan-18 21:47 38.537344 -115.770343 256 34268ft 370kts
11-Jan-18 21:48 38.503648 -115.895045 256 34266ft 371kts
11-Jan-18 21:49 38.470068 -116.018761 256 34264ft 372kts
11-Jan-18 21:50 38.436117 -116.143235 255 34262ft 372kts
11-Jan-18 21:51 38.402773 -116.267763 256 34285ft 372kts
11-Jan-18 21:52 38.369175 -116.392737 256 34285ft 372kts
11-Jan-18 21:53 38.335512 -116.517215 256 34282ft 373kts
11-Jan-18 21:54 38.301886 -116.641908 256 34280ft 373kts
11-Jan-18 21:55 38.268578 -116.765370 256 34292ft 368kts
11-Jan-18 21:56 38.235671 -116.888303 256 34295ft 369kts
11-Jan-18 21:57 38.202823 -117.011541 256 34292ft 369kts
11-Jan-18 21:58 38.169935 -117.135425 256 34290ft 370kts
11-Jan-18 21:59 38.137159 -117.259379 256 34288ft 370kts
11-Jan-18 22:00 38.104566 -117.383147 256 34284ft 371kts
11-Jan-18 22:01 38.070869 -117.511655 255 34286ft 390kts
11-Jan-18 22:02 38.036814 -117.641923 255 34283ft 389kts
11-Jan-18 22:03 38.003274 -117.771348 258 34290ft 388kts
11-Jan-18 22:04 37.988402 -117.906233 264 34293ft 386kts
11-Jan-18 22:05 37.973683 -118.040607 263 34313ft 385kts
11-Jan-18 22:06 37.958884 -118.175087 264 34317ft 386kts
11-Jan-18 22:07 37.944288 -118.309046 264 34395ft 386kts
11-Jan-18 22:08 37.929779 -118.443579 264 34394ft 386kts
11-Jan-18 22:09 37.915462 -118.577776 264 34392ft 386kts
11-Jan-18 22:10 37.901674 -118.707789 263 34403ft 386kts
11-Jan-18 22:11 37.887258 -118.839361 263 34401ft 386kts
11-Jan-18 22:12 37.871989 -118.973078 263 34399ft 386kts
11-Jan-18 22:13 37.856517 -119.107628 263 34397ft 386kts
11-Jan-18 22:14 37.840912 -119.242010 263 34396ft 386kts
11-Jan-18 22:15 37.825196 -119.376012 263 34394ft 386kts
11-Jan-18 22:16 37.809359 -119.509701 263 34392ft 386kts
11-Jan-18 22:17 37.793289 -119.644034 263 34390ft 386kts
11-Jan-18 22:18 37.778874 -119.762665 263 34402ft 386kts
11-Jan-18 22:19 37.762624 -119.895845 263 34374ft 385kts
11-Jan-18 22:20 37.750180 -119.997094 262 34372ft 385kts
11-Jan-18 22:21 37.734631 -120.122508 263 33896ft 356kts
11-Jan-18 22:22 37.719925 -120.240769 263 32187ft 327kts
11-Jan-18 22:23 37.705868 -120.351856 263 30591ft 324kts
11-Jan-18 22:24 37.692122 -120.465099 264 28948ft 330kts
11-Jan-18 22:25 37.678729 -120.580346 264 27377ft 334kts
11-Jan-18 22:26 37.665400 -120.693425 263 27241ft 341kts
11-Jan-18 22:27 37.651335 -120.811021 263 25062ft 345kts
11-Jan-18 22:28 37.637973 -120.921676 264 22926ft 337kts
11-Jan-18 22:29 37.623226 -121.036214 263 20649ft 323kts
11-Jan-18 22:30 37.608519 -121.146049 263 19046ft 316kts
11-Jan-18 22:31 37.594048 -121.253492 263 17481ft 310kts
11-Jan-18 22:32 37.581493 -121.360596 264 15527ft 307kts
11-Jan-18 22:33 37.569535 -121.464437 264 14037ft 297kts
11-Jan-18 22:34 37.557890 -121.564407 264 12579ft 278kts
11-Jan-18 22:35 37.544021 -121.655475 255 11242ft 263kts
11-Jan-18 22:36 37.522686 -121.743090 253 9943ft 274kts
11-Jan-18 22:37 37.500658 -121.834296 256 8570ft 269kts
11-Jan-18 22:38 37.493568 -121.923691 275 7489ft 251kts
11-Jan-18 22:39 37.501471 -122.009303 281 6152ft 242kts
11-Jan-18 22:40 37.520175 -122.086832 291 4714ft 225kts
11-Jan-18 22:41 37.542183 -122.158585 291 2921ft 217kts
11-Jan-18 22:42 37.562904 -122.226103 291 1750ft 182kts
11-Jan-18 22:43 37.579974 -122.277490 296 1473ft 157kts
11-Jan-18 22:44 37.600196 -122.325283 297 607ft 152kts
11-Jan-18 22:45 37.618061 -122.367983 296 16ft 62kts
11-Jan-18 22:46 37.619891 -122.372328 299 16ft 21kts
11-Jan-18 22:47 37.620568 -122.378034 229 16ft 10kts
11-Jan-18 22:48 37.618534 -122.379840 159 16ft 9kts
11-Jan-18 22:49 37.615640 -122.380292 209 16ft 13kts
11-Jan-18 22:50 37.613732 -122.382933 299 16ft 8kts
11-Jan-18 22:51 37.613628 -122.384411 256 16ft 0kts

Navigation Log

Ident Type
Flight plan parsing failed, navigation log unavailable